sensor_id;sensor_type;location;lat;lon;timestamp;pressure;altitude;pressure_sealevel;temperature;humidity
51687;BME280;37774;52.192;4.584;2023-02-02T00:02:04;102494.34;;;6.45;100.00
51687;BME280;37774;52.192;4.584;2023-02-02T00:04:33;102549.63;;;6.75;100.00
51687;BME280;37774;52.192;4.584;2023-02-02T00:07:01;102561.88;;;6.80;100.00
51687;BME280;37774;52.192;4.584;2023-02-02T00:09:30;102504.97;;;6.30;100.00
51687;BME280;37774;52.192;4.584;2023-02-02T00:11:59;102606.81;;;7.08;100.00
51687;BME280;37774;52.192;4.584;2023-02-02T00:14:28;102543.41;;;6.69;100.00
51687;BME280;37774;52.192;4.584;2023-02-02T00:16:55;102602.41;;;7.06;100.00
51687;BME280;37774;52.192;4.584;2023-02-02T00:19:23;102577.53;;;6.85;100.00
51687;BME280;37774;52.192;4.584;2023-02-02T00:21:51;102570.63;;;6.84;100.00
51687;BME280;37774;52.192;4.584;2023-02-02T00:24:18;102512.25;;;6.40;100.00
51687;BME280;37774;52.192;4.584;2023-02-02T00:26:47;102580.72;;;6.78;100.00
51687;BME280;37774;52.192;4.584;2023-02-02T00:29:16;102509.34;;;6.55;100.00
51687;BME280;37774;52.192;4.584;2023-02-02T00:31:45;102606.97;;;7.13;100.00
51687;BME280;37774;52.192;4.584;2023-02-02T00:34:13;102414.94;;;5.92;100.00
51687;BME280;37774;52.192;4.584;2023-02-02T00:36:40;102471.75;;;6.39;100.00
51687;BME280;37774;52.192;4.584;2023-02-02T00:39:08;102586.34;;;7.14;100.00
51687;BME280;37774;52.192;4.584;2023-02-02T00:41:35;102189.69;;;4.52;100.00
51687;BME280;37774;52.192;4.584;2023-02-02T00:44:02;102431.69;;;6.02;100.00
51687;BME280;37774;52.192;4.584;2023-02-02T00:46:48;102541.16;;;6.79;100.00
51687;BME280;37774;52.192;4.584;2023-02-02T00:49:15;102590.56;;;7.12;100.00
51687;BME280;37774;52.192;4.584;2023-02-02T00:51:42;102193.06;;;4.72;100.00
51687;BME280;37774;52.192;4.584;2023-02-02T00:54:09;102469.91;;;6.12;100.00
51687;BME280;37774;52.192;4.584;2023-02-02T00:56:36;102283.88;;;5.12;100.00
51687;BME280;37774;52.192;4.584;2023-02-02T00:59:03;102415.59;;;5.87;100.00
51687;BME280;37774;52.192;4.584;2023-02-02T01:01:30;102331.06;;;5.32;100.00
51687;BME280;37774;52.192;4.584;2023-02-02T01:03:58;102150.25;;;4.30;100.00
51687;BME280;37774;52.192;4.584;2023-02-02T01:06:26;102616.94;;;7.02;100.00
51687;BME280;37774;52.192;4.584;2023-02-02T01:08:52;102124.13;;;3.98;100.00
51687;BME280;37774;52.192;4.584;2023-02-02T01:11:20;102142.16;;;4.21;100.00
51687;BME280;37774;52.192;4.584;2023-02-02T01:13:47;102583.69;;;6.64;100.00
51687;BME280;37774;52.192;4.584;2023-02-02T01:16:13;102199.06;;;4.50;100.00
51687;BME280;37774;52.192;4.584;2023-02-02T01:18:41;102430.31;;;5.89;100.00
51687;BME280;37774;52.192;4.584;2023-02-02T01:21:11;102599.97;;;6.86;100.00
51687;BME280;37774;52.192;4.584;2023-02-02T01:23:39;102559.47;;;6.61;100.00
51687;BME280;37774;52.192;4.584;2023-02-02T01:26:07;102624.63;;;7.00;100.00
51687;BME280;37774;52.192;4.584;2023-02-02T01:28:35;102544.22;;;6.68;100.00
51687;BME280;37774;52.192;4.584;2023-02-02T01:31:05;102483.88;;;6.18;100.00
51687;BME280;37774;52.192;4.584;2023-02-02T01:33:32;102574.50;;;6.72;100.00
51687;BME280;37774;52.192;4.584;2023-02-02T01:36:03;102483.66;;;6.36;100.00
51687;BME280;37774;52.192;4.584;2023-02-02T01:38:32;102635.91;;;7.03;100.00
51687;BME280;37774;52.192;4.584;2023-02-02T01:41:00;102542.78;;;6.77;100.00
51687;BME280;37774;52.192;4.584;2023-02-02T01:43:49;102579.03;;;7.03;100.00
51687;BME280;37774;52.192;4.584;2023-02-02T01:46:18;102598.00;;;7.03;100.00
51687;BME280;37774;52.192;4.584;2023-02-02T01:48:48;102332.72;;;5.32;100.00
51687;BME280;37774;52.192;4.584;2023-02-02T01:51:19;102586.84;;;7.04;100.00
51687;BME280;37774;52.192;4.584;2023-02-02T01:53:50;102463.34;;;6.21;100.00
51687;BME280;37774;52.192;4.584;2023-02-02T01:56:23;102546.19;;;6.76;100.00
51687;BME280;37774;52.192;4.584;2023-02-02T01:58:50;102284.00;;;5.15;100.00
51687;BME280;37774;52.192;4.584;2023-02-02T02:01:17;102207.09;;;4.80;100.00
51687;BME280;37774;52.192;4.584;2023-02-02T02:03:44;102337.56;;;5.24;100.00
51687;BME280;37774;52.192;4.584;2023-02-02T02:06:13;102586.22;;;7.11;100.00
51687;BME280;37774;52.192;4.584;2023-02-02T02:08:45;102534.31;;;6.81;100.00
51687;BME280;37774;52.192;4.584;2023-02-02T02:11:14;102539.59;;;6.84;100.00
51687;BME280;37774;52.192;4.584;2023-02-02T02:13:41;102334.66;;;5.60;100.00
51687;BME280;37774;52.192;4.584;2023-02-02T02:16:32;102513.34;;;6.71;100.00
51687;BME280;37774;52.192;4.584;2023-02-02T02:19:04;102573.38;;;7.13;100.00
51687;BME280;37774;52.192;4.584;2023-02-02T02:21:51;102486.25;;;6.60;100.00
51687;BME280;37774;52.192;4.584;2023-02-02T02:25:13;102557.84;;;7.13;100.00
51687;BME280;37774;52.192;4.584;2023-02-02T02:28:19;102521.69;;;6.89;100.00
51687;BME280;37774;52.192;4.584;2023-02-02T02:34:11;102556.97;;;7.12;100.00
51687;BME280;37774;52.192;4.584;2023-02-02T02:36:46;102560.44;;;7.13;100.00
51687;BME280;37774;52.192;4.584;2023-02-02T02:39:17;102476.91;;;6.64;100.00
51687;BME280;37774;52.192;4.584;2023-02-02T02:41:49;102446.31;;;6.26;100.00
51687;BME280;37774;52.192;4.584;2023-02-02T02:44:18;102493.59;;;6.73;100.00
51687;BME280;37774;52.192;4.584;2023-02-02T02:46:47;102547.41;;;7.10;100.00
51687;BME280;37774;52.192;4.584;2023-02-02T02:49:16;102500.72;;;6.81;100.00
51687;BME280;37774;52.192;4.584;2023-02-02T02:51:45;102382.22;;;5.91;100.00
51687;BME280;37774;52.192;4.584;2023-02-02T02:54:16;102061.50;;;4.20;100.00
51687;BME280;37774;52.192;4.584;2023-02-02T02:57:02;102513.53;;;6.78;100.00
51687;BME280;37774;52.192;4.584;2023-02-02T02:59:36;102076.72;;;4.14;100.00
51687;BME280;37774;52.192;4.584;2023-02-02T03:02:21;102191.06;;;4.88;100.00
51687;BME280;37774;52.192;4.584;2023-02-02T03:05:03;102564.78;;;7.14;100.00
51687;BME280;37774;52.192;4.584;2023-02-02T03:07:37;102513.66;;;6.81;100.00
51687;BME280;37774;52.192;4.584;2023-02-02T03:10:08;102411.69;;;6.21;100.00
51687;BME280;37774;52.192;4.584;2023-02-02T03:12:43;102571.81;;;7.18;100.00
51687;BME280;37774;52.192;4.584;2023-02-02T03:15:11;102242.41;;;5.29;100.00
51687;BME280;37774;52.192;4.584;2023-02-02T03:17:39;102598.44;;;7.15;100.00
51687;BME280;37774;52.192;4.584;2023-02-02T03:20:09;102494.28;;;6.68;100.00
51687;BME280;37774;52.192;4.584;2023-02-02T03:22:36;102240.78;;;5.08;100.00
51687;BME280;37774;52.192;4.584;2023-02-02T03:25:04;102569.06;;;7.13;100.00
51687;BME280;37774;52.192;4.584;2023-02-02T03:27:31;102526.63;;;6.82;100.00
51687;BME280;37774;52.192;4.584;2023-02-02T03:29:58;102467.09;;;6.53;100.00
51687;BME280;37774;52.192;4.584;2023-02-02T03:32:25;102578.69;;;7.18;100.00
51687;BME280;37774;52.192;4.584;2023-02-02T03:34:52;102345.53;;;5.76;100.00
51687;BME280;37774;52.192;4.584;2023-02-02T03:37:20;102424.59;;;6.21;100.00
51687;BME280;37774;52.192;4.584;2023-02-02T03:39:47;102518.16;;;6.86;100.00
51687;BME280;37774;52.192;4.584;2023-02-02T03:42:13;102528.41;;;6.83;100.00
51687;BME280;37774;52.192;4.584;2023-02-02T03:44:40;102504.31;;;6.60;100.00
51687;BME280;37774;52.192;4.584;2023-02-02T03:47:07;102480.00;;;6.53;100.00
51687;BME280;37774;52.192;4.584;2023-02-02T03:49:34;102504.22;;;6.81;100.00
51687;BME280;37774;52.192;4.584;2023-02-02T03:52:01;102165.00;;;4.57;100.00
51687;BME280;37774;52.192;4.584;2023-02-02T03:54:30;102213.38;;;4.87;100.00
51687;BME280;37774;52.192;4.584;2023-02-02T03:56:57;102346.63;;;5.82;100.00
51687;BME280;37774;52.192;4.584;2023-02-02T03:59:25;102457.50;;;6.51;100.00
51687;BME280;37774;52.192;4.584;2023-02-02T04:01:52;102562.41;;;7.20;100.00
51687;BME280;37774;52.192;4.584;2023-02-02T04:04:20;102271.88;;;5.35;100.00
51687;BME280;37774;52.192;4.584;2023-02-02T04:06:46;102233.28;;;5.14;100.00
51687;BME280;37774;52.192;4.584;2023-02-02T04:09:13;102572.84;;;7.23;100.00
51687;BME280;37774;52.192;4.584;2023-02-02T04:11:41;102507.88;;;6.88;100.00
51687;BME280;37774;52.192;4.584;2023-02-02T04:14:08;102461.22;;;6.59;100.00
51687;BME280;37774;52.192;4.584;2023-02-02T04:16:35;102435.88;;;6.47;100.00
51687;BME280;37774;52.192;4.584;2023-02-02T04:19:02;102235.56;;;5.06;100.00
51687;BME280;37774;52.192;4.584;2023-02-02T04:21:29;102340.41;;;5.77;100.00
51687;BME280;37774;52.192;4.584;2023-02-02T04:23:56;102566.78;;;7.23;100.00
51687;BME280;37774;52.192;4.584;2023-02-02T04:26:23;102286.28;;;5.54;100.00
51687;BME280;37774;52.192;4.584;2023-02-02T04:28:52;102513.88;;;6.87;100.00
51687;BME280;37774;52.192;4.584;2023-02-02T04:31:19;102572.03;;;7.24;100.00
51687;BME280;37774;52.192;4.584;2023-02-02T04:33:46;102498.97;;;6.80;100.00
51687;BME280;37774;52.192;4.584;2023-02-02T04:36:13;102541.34;;;7.09;100.00
51687;BME280;37774;52.192;4.584;2023-02-02T04:38:41;102325.75;;;5.76;100.00
51687;BME280;37774;52.192;4.584;2023-02-02T04:41:10;102218.19;;;5.01;100.00
51687;BME280;37774;52.192;4.584;2023-02-02T04:43:39;102497.19;;;6.77;100.00
51687;BME280;37774;52.192;4.584;2023-02-02T04:46:07;102419.69;;;6.28;100.00
51687;BME280;37774;52.192;4.584;2023-02-02T04:48:34;102330.59;;;5.67;100.00
51687;BME280;37774;52.192;4.584;2023-02-02T04:51:03;102161.03;;;4.65;100.00
51687;BME280;37774;52.192;4.584;2023-02-02T04:53:31;102496.84;;;6.68;100.00
51687;BME280;37774;52.192;4.584;2023-02-02T04:56:04;102551.56;;;7.06;100.00
51687;BME280;37774;52.192;4.584;2023-02-02T04:58:31;102528.44;;;6.85;100.00
51687;BME280;37774;52.192;4.584;2023-02-02T05:00:57;102556.81;;;6.83;100.00
51687;BME280;37774;52.192;4.584;2023-02-02T05:03:28;102166.88;;;4.61;100.00
51687;BME280;37774;52.192;4.584;2023-02-02T05:06:00;102194.69;;;4.93;100.00
51687;BME280;37774;52.192;4.584;2023-02-02T05:08:27;102543.13;;;6.86;100.00
51687;BME280;37774;52.192;4.584;2023-02-02T05:10:54;102527.69;;;6.87;100.00
51687;BME280;37774;52.192;4.584;2023-02-02T05:13:21;102572.75;;;7.20;100.00
51687;BME280;37774;52.192;4.584;2023-02-02T05:15:48;102320.00;;;5.59;100.00
51687;BME280;37774;52.192;4.584;2023-02-02T05:18:15;102324.44;;;5.63;100.00
51687;BME280;37774;52.192;4.584;2023-02-02T05:20:43;102472.13;;;6.50;100.00
51687;BME280;37774;52.192;4.584;2023-02-02T05:23:10;102578.75;;;7.19;100.00
51687;BME280;37774;52.192;4.584;2023-02-02T05:25:37;102590.97;;;7.23;100.00
51687;BME280;37774;52.192;4.584;2023-02-02T05:28:04;102397.06;;;5.97;100.00
51687;BME280;37774;52.192;4.584;2023-02-02T05:30:31;102595.22;;;7.23;100.00
51687;BME280;37774;52.192;4.584;2023-02-02T05:32:58;102607.22;;;7.21;100.00
51687;BME280;37774;52.192;4.584;2023-02-02T05:35:25;102503.78;;;6.69;100.00
51687;BME280;37774;52.192;4.584;2023-02-02T05:37:53;102591.81;;;7.24;100.00
51687;BME280;37774;52.192;4.584;2023-02-02T05:40:20;102604.72;;;7.22;100.00
51687;BME280;37774;52.192;4.584;2023-02-02T05:42:47;102487.06;;;6.59;100.00
51687;BME280;37774;52.192;4.584;2023-02-02T05:45:14;102540.00;;;6.95;100.00
51687;BME280;37774;52.192;4.584;2023-02-02T05:47:41;102527.19;;;6.73;100.00
51687;BME280;37774;52.192;4.584;2023-02-02T05:50:09;102595.31;;;7.24;100.00
51687;BME280;37774;52.192;4.584;2023-02-02T05:52:36;102544.78;;;6.60;100.00
51687;BME280;37774;52.192;4.584;2023-02-02T05:55:08;102292.41;;;5.34;100.00
51687;BME280;37774;52.192;4.584;2023-02-02T05:57:35;102634.91;;;7.23;100.00
51687;BME280;37774;52.192;4.584;2023-02-02T06:00:03;102390.25;;;5.76;100.00
51687;BME280;37774;52.192;4.584;2023-02-02T06:02:30;102531.91;;;6.61;100.00
51687;BME280;37774;52.192;4.584;2023-02-02T06:04:57;102619.44;;;7.25;100.00
51687;BME280;37774;52.192;4.584;2023-02-02T06:07:24;102302.84;;;5.37;100.00
51687;BME280;37774;52.192;4.584;2023-02-02T06:09:51;102612.50;;;7.24;100.00
51687;BME280;37774;52.192;4.584;2023-02-02T06:12:19;102563.09;;;6.90;100.00
51687;BME280;37774;52.192;4.584;2023-02-02T06:14:46;102598.09;;;7.06;100.00
51687;BME280;37774;52.192;4.584;2023-02-02T06:17:13;102288.91;;;5.09;100.00
51687;BME280;37774;52.192;4.584;2023-02-02T06:19:40;102296.75;;;5.12;100.00
51687;BME280;37774;52.192;4.584;2023-02-02T06:22:07;102252.22;;;4.71;100.00
51687;BME280;37774;52.192;4.584;2023-02-02T06:24:36;102270.88;;;4.86;100.00
51687;BME280;37774;52.192;4.584;2023-02-02T06:27:03;102496.22;;;6.02;100.00
51687;BME280;37774;52.192;4.584;2023-02-02T06:29:31;102259.41;;;4.57;100.00
51687;BME280;37774;52.192;4.584;2023-02-02T06:31:58;102408.91;;;5.46;100.00
51687;BME280;37774;52.192;4.584;2023-02-02T06:34:25;102640.38;;;6.84;100.00
51687;BME280;37774;52.192;4.584;2023-02-02T06:36:52;102677.44;;;7.07;100.00
51687;BME280;37774;52.192;4.584;2023-02-02T06:39:18;102712.28;;;7.17;100.00
51687;BME280;37774;52.192;4.584;2023-02-02T06:41:45;102534.03;;;6.02;100.00
51687;BME280;37774;52.192;4.584;2023-02-02T06:44:12;102632.06;;;6.68;100.00
51687;BME280;37774;52.192;4.584;2023-02-02T06:46:41;102658.38;;;6.81;100.00
51687;BME280;37774;52.192;4.584;2023-02-02T06:49:08;102425.63;;;5.56;100.00
51687;BME280;37774;52.192;4.584;2023-02-02T06:51:35;102610.69;;;6.48;100.00
51687;BME280;37774;52.192;4.584;2023-02-02T06:54:02;102562.72;;;6.32;100.00
51687;BME280;37774;52.192;4.584;2023-02-02T06:56:29;102695.59;;;7.09;100.00
51687;BME280;37774;52.192;4.584;2023-02-02T06:58:56;102589.78;;;6.42;100.00
51687;BME280;37774;52.192;4.584;2023-02-02T07:01:23;102595.94;;;6.46;100.00
51687;BME280;37774;52.192;4.584;2023-02-02T07:03:51;102685.84;;;7.01;100.00
51687;BME280;37774;52.192;4.584;2023-02-02T07:06:20;102600.16;;;6.43;100.00
51687;BME280;37774;52.192;4.584;2023-02-02T07:08:48;102607.09;;;6.45;100.00
51687;BME280;37774;52.192;4.584;2023-02-02T07:11:16;102667.94;;;6.83;100.00
51687;BME280;37774;52.192;4.584;2023-02-02T07:13:44;102670.69;;;6.88;100.00
51687;BME280;37774;52.192;4.584;2023-02-02T07:16:12;102546.22;;;6.06;100.00
51687;BME280;37774;52.192;4.584;2023-02-02T07:18:40;102735.94;;;7.05;100.00
51687;BME280;37774;52.192;4.584;2023-02-02T07:21:15;102693.91;;;6.86;100.00
51687;BME280;37774;52.192;4.584;2023-02-02T07:23:43;102754.13;;;7.07;100.00
51687;BME280;37774;52.192;4.584;2023-02-02T07:26:11;102519.19;;;5.75;100.00
51687;BME280;37774;52.192;4.584;2023-02-02T07:28:39;102695.78;;;6.68;100.00
51687;BME280;37774;52.192;4.584;2023-02-02T07:31:14;102616.16;;;6.35;100.00
51687;BME280;37774;52.192;4.584;2023-02-02T07:33:42;102632.75;;;6.40;100.00
51687;BME280;37774;52.192;4.584;2023-02-02T07:36:11;102372.84;;;4.81;100.00
51687;BME280;37774;52.192;4.584;2023-02-02T07:38:41;102603.31;;;6.13;100.00
51687;BME280;37774;52.192;4.584;2023-02-02T07:41:08;102405.00;;;4.91;100.00
51687;BME280;37774;52.192;4.584;2023-02-02T07:43:35;102620.44;;;6.11;100.00
51687;BME280;37774;52.192;4.584;2023-02-02T07:46:05;102744.53;;;7.04;100.00
51687;BME280;37774;52.192;4.584;2023-02-02T07:48:32;102635.06;;;6.34;100.00
51687;BME280;37774;52.192;4.584;2023-02-02T07:50:59;102571.16;;;6.05;100.00
51687;BME280;37774;52.192;4.584;2023-02-02T07:53:29;102538.31;;;5.80;100.00
51687;BME280;37774;52.192;4.584;2023-02-02T07:56:07;102613.13;;;6.22;100.00
51687;BME280;37774;52.192;4.584;2023-02-02T07:58:36;102467.34;;;5.24;100.00
51687;BME280;37774;52.192;4.584;2023-02-02T08:01:05;102245.16;;;4.01;100.00
51687;BME280;37774;52.192;4.584;2023-02-02T08:03:34;102618.81;;;6.13;100.00
51687;BME280;37774;52.192;4.584;2023-02-02T08:06:09;102463.00;;;5.23;100.00
51687;BME280;37774;52.192;4.584;2023-02-02T08:08:38;102790.19;;;7.04;100.00
51687;BME280;37774;52.192;4.584;2023-02-02T08:11:07;102487.97;;;5.24;100.00
51687;BME280;37774;52.192;4.584;2023-02-02T08:13:35;102754.84;;;7.03;100.00
51687;BME280;37774;52.192;4.584;2023-02-02T08:16:03;102431.72;;;5.14;100.00
51687;BME280;37774;52.192;4.584;2023-02-02T08:18:30;102765.28;;;7.06;100.00
51687;BME280;37774;52.192;4.584;2023-02-02T08:20:58;102792.94;;;7.08;100.00
51687;BME280;37774;52.192;4.584;2023-02-02T08:23:27;102307.72;;;4.41;100.00
51687;BME280;37774;52.192;4.584;2023-02-02T08:26:05;102466.78;;;5.32;100.00
51687;BME280;37774;52.192;4.584;2023-02-02T08:28:32;102345.56;;;4.44;100.00
51687;BME280;37774;52.192;4.584;2023-02-02T08:31:03;102519.53;;;5.61;100.00
51687;BME280;37774;52.192;4.584;2023-02-02T08:33:32;102616.63;;;6.24;100.00
51687;BME280;37774;52.192;4.584;2023-02-02T08:35:59;102614.03;;;6.02;100.00
51687;BME280;37774;52.192;4.584;2023-02-02T08:38:26;102397.09;;;4.86;100.00
51687;BME280;37774;52.192;4.584;2023-02-02T08:40:53;102259.13;;;4.08;100.00
51687;BME280;37774;52.192;4.584;2023-02-02T08:43:24;102408.72;;;4.76;100.00
51687;BME280;37774;52.192;4.584;2023-02-02T08:45:51;102609.22;;;6.11;100.00
51687;BME280;37774;52.192;4.584;2023-02-02T08:48:19;102552.84;;;5.78;100.00
51687;BME280;37774;52.192;4.584;2023-02-02T08:50:53;102430.59;;;4.86;100.00
51687;BME280;37774;52.192;4.584;2023-02-02T08:53:20;102301.03;;;4.25;100.00
51687;BME280;37774;52.192;4.584;2023-02-02T08:55:48;102406.34;;;4.81;100.00
51687;BME280;37774;52.192;4.584;2023-02-02T08:58:16;102336.03;;;4.41;100.00
51687;BME280;37774;52.192;4.584;2023-02-02T09:00:44;102803.72;;;7.19;100.00
51687;BME280;37774;52.192;4.584;2023-02-02T09:03:11;102304.53;;;4.27;100.00
51687;BME280;37774;52.192;4.584;2023-02-02T09:05:38;102576.53;;;5.67;100.00
51687;BME280;37774;52.192;4.584;2023-02-02T09:08:06;102456.03;;;5.00;100.00
51687;BME280;37774;52.192;4.584;2023-02-02T09:10:34;102776.72;;;6.90;100.00
51687;BME280;37774;52.192;4.584;2023-02-02T09:13:02;102736.06;;;6.63;100.00
51687;BME280;37774;52.192;4.584;2023-02-02T09:15:30;102602.50;;;5.72;100.00
51687;BME280;37774;52.192;4.584;2023-02-02T09:17:58;102459.44;;;4.99;100.00
51687;BME280;37774;52.192;4.584;2023-02-02T09:20:26;102763.31;;;6.54;100.00
51687;BME280;37774;52.192;4.584;2023-02-02T09:22:54;102741.75;;;6.54;100.00
51687;BME280;37774;52.192;4.584;2023-02-02T09:25:22;102852.06;;;7.22;100.00
51687;BME280;37774;52.192;4.584;2023-02-02T09:27:51;102459.28;;;4.74;100.00
51687;BME280;37774;52.192;4.584;2023-02-02T09:30:19;102606.00;;;5.74;100.00
51687;BME280;37774;52.192;4.584;2023-02-02T09:32:48;102642.41;;;6.02;100.00
51687;BME280;37774;52.192;4.584;2023-02-02T09:35:16;102840.63;;;7.15;100.00
51687;BME280;37774;52.192;4.584;2023-02-02T09:37:43;102738.56;;;6.38;100.00
51687;BME280;37774;52.192;4.584;2023-02-02T09:40:14;102912.41;;;7.43;100.00
51687;BME280;37774;52.192;4.584;2023-02-02T09:43:01;102864.47;;;7.53;100.00
51687;BME280;37774;52.192;4.584;2023-02-02T09:45:38;102831.09;;;7.37;100.00
51687;BME280;37774;52.192;4.584;2023-02-02T09:48:19;102808.28;;;7.26;100.00
51687;BME280;37774;52.192;4.584;2023-02-02T09:50:53;102866.56;;;7.64;100.00
51687;BME280;37774;52.192;4.584;2023-02-02T09:53:28;102857.22;;;7.67;100.00
51687;BME280;37774;52.192;4.584;2023-02-02T09:55:59;102801.00;;;7.39;100.00
51687;BME280;37774;52.192;4.584;2023-02-02T09:58:31;102855.97;;;7.80;100.00
51687;BME280;37774;52.192;4.584;2023-02-02T10:01:03;102654.00;;;6.55;100.00
51687;BME280;37774;52.192;4.584;2023-02-02T10:03:36;102863.56;;;7.75;100.00
51687;BME280;37774;52.192;4.584;2023-02-02T10:06:17;102855.97;;;7.80;100.00
51687;BME280;37774;52.192;4.584;2023-02-02T10:08:51;102869.94;;;7.85;100.00
51687;BME280;37774;52.192;4.584;2023-02-02T10:11:31;102861.31;;;7.85;100.00
51687;BME280;37774;52.192;4.584;2023-02-02T10:14:01;102854.25;;;7.81;100.00
51687;BME280;37774;52.192;4.584;2023-02-02T10:16:32;102536.47;;;5.77;100.00
51687;BME280;37774;52.192;4.584;2023-02-02T10:19:02;102792.22;;;7.35;100.00
51687;BME280;37774;52.192;4.584;2023-02-02T10:21:37;102869.50;;;7.73;100.00
51687;BME280;37774;52.192;4.584;2023-02-02T10:24:15;102864.41;;;7.74;100.00
51687;BME280;37774;52.192;4.584;2023-02-02T10:26:45;102434.59;;;5.22;100.00
51687;BME280;37774;52.192;4.584;2023-02-02T10:29:15;102865.47;;;7.81;100.00
51687;BME280;37774;52.192;4.584;2023-02-02T10:31:48;102858.16;;;7.69;100.00
51687;BME280;37774;52.192;4.584;2023-02-02T10:34:23;102723.50;;;6.95;100.00
51687;BME280;37774;52.192;4.584;2023-02-02T10:37:04;102787.59;;;7.26;100.00
51687;BME280;37774;52.192;4.584;2023-02-02T10:39:44;102845.84;;;7.62;100.00
51687;BME280;37774;52.192;4.584;2023-02-02T10:42:18;102791.06;;;7.50;100.00
51687;BME280;37774;52.192;4.584;2023-02-02T10:44:49;102843.13;;;7.83;100.00
51687;BME280;37774;52.192;4.584;2023-02-02T10:47:23;102859.38;;;7.79;100.00
51687;BME280;37774;52.192;4.584;2023-02-02T10:49:57;102585.88;;;6.31;100.00
51687;BME280;37774;52.192;4.584;2023-02-02T10:52:31;102854.59;;;7.90;100.00
51687;BME280;37774;52.192;4.584;2023-02-02T10:55:00;102817.19;;;7.82;100.00
51687;BME280;37774;52.192;4.584;2023-02-02T10:57:52;102760.22;;;7.56;100.00
51687;BME280;37774;52.192;4.584;2023-02-02T11:00:27;102785.41;;;7.62;100.00
51687;BME280;37774;52.192;4.584;2023-02-02T11:02:57;102786.66;;;7.71;100.00
51687;BME280;37774;52.192;4.584;2023-02-02T11:05:29;102794.88;;;7.85;100.00
51687;BME280;37774;52.192;4.584;2023-02-02T11:08:17;102810.09;;;7.76;100.00
51687;BME280;37774;52.192;4.584;2023-02-02T11:10:45;102743.69;;;7.52;100.00
51687;BME280;37774;52.192;4.584;2023-02-02T11:13:25;102702.91;;;7.21;100.00
51687;BME280;37774;52.192;4.584;2023-02-02T11:16:17;102797.44;;;7.84;100.00
51687;BME280;37774;52.192;4.584;2023-02-02T11:18:45;102779.03;;;7.76;100.00
51687;BME280;37774;52.192;4.584;2023-02-02T11:21:17;102826.03;;;8.13;100.00
51687;BME280;37774;52.192;4.584;2023-02-02T11:23:53;102773.63;;;7.70;100.00
51687;BME280;37774;52.192;4.584;2023-02-02T11:26:21;102750.13;;;7.64;100.00
51687;BME280;37774;52.192;4.584;2023-02-02T11:28:50;102462.28;;;5.93;100.00
51687;BME280;37774;52.192;4.584;2023-02-02T11:31:32;102663.78;;;7.11;100.00
51687;BME280;37774;52.192;4.584;2023-02-02T11:34:15;102725.34;;;7.44;100.00
51687;BME280;37774;52.192;4.584;2023-02-02T11:36:58;102830.88;;;8.02;100.00
51687;BME280;37774;52.192;4.584;2023-02-02T11:39:27;102669.88;;;6.89;100.00
51687;BME280;37774;52.192;4.584;2023-02-02T11:42:01;102629.13;;;6.82;100.00
51687;BME280;37774;52.192;4.584;2023-02-02T11:44:31;102774.69;;;7.75;100.00
51687;BME280;37774;52.192;4.584;2023-02-02T11:47:01;102432.69;;;5.62;100.00
51687;BME280;37774;52.192;4.584;2023-02-02T11:49:31;102767.81;;;7.51;100.00
51687;BME280;37774;52.192;4.584;2023-02-02T11:52:00;102720.81;;;7.39;100.00
51687;BME280;37774;52.192;4.584;2023-02-02T11:54:31;102772.31;;;7.81;100.00
51687;BME280;37774;52.192;4.584;2023-02-02T11:57:00;102593.53;;;6.75;100.00
51687;BME280;37774;52.192;4.584;2023-02-02T11:59:30;102583.06;;;6.70;100.00
51687;BME280;37774;52.192;4.584;2023-02-02T12:02:24;102806.94;;;8.09;100.00
51687;BME280;37774;52.192;4.584;2023-02-02T12:04:52;102617.09;;;7.07;100.00
51687;BME280;37774;52.192;4.584;2023-02-02T12:07:24;102818.38;;;8.16;100.00
51687;BME280;37774;52.192;4.584;2023-02-02T12:09:56;102816.47;;;8.10;100.00
51687;BME280;37774;52.192;4.584;2023-02-02T12:12:36;102830.34;;;8.12;100.00
51687;BME280;37774;52.192;4.584;2023-02-02T12:15:14;102744.03;;;7.62;100.00
51687;BME280;37774;52.192;4.584;2023-02-02T12:17:46;102729.00;;;7.51;100.00
51687;BME280;37774;52.192;4.584;2023-02-02T12:20:20;102813.06;;;7.87;100.00
51687;BME280;37774;52.192;4.584;2023-02-02T12:26:08;102887.34;;;7.89;100.00
51687;BME280;37774;52.192;4.584;2023-02-02T12:28:58;102869.69;;;7.78;100.00
51687;BME280;37774;52.192;4.584;2023-02-02T12:31:35;102889.22;;;7.69;100.00
51687;BME280;37774;52.192;4.584;2023-02-02T12:34:10;102894.22;;;7.65;100.00
51687;BME280;37774;52.192;4.584;2023-02-02T12:36:48;102654.47;;;6.01;100.00
51687;BME280;37774;52.192;4.584;2023-02-02T12:39:38;102938.31;;;7.45;100.00
51687;BME280;37774;52.192;4.584;2023-02-02T12:42:31;102896.31;;;6.85;100.00
51687;BME280;37774;52.192;4.584;2023-02-02T12:45:25;102914.41;;;6.85;100.00
51687;BME280;37774;52.192;4.584;2023-02-02T12:48:09;102807.13;;;6.10;100.00
51687;BME280;37774;52.192;4.584;2023-02-02T12:50:50;102963.03;;;6.94;100.00
51687;BME280;37774;52.192;4.584;2023-02-02T12:53:31;102951.47;;;6.65;100.00
51687;BME280;37774;52.192;4.584;2023-02-02T12:56:08;103082.22;;;7.22;100.00
51687;BME280;37774;52.192;4.584;2023-02-02T12:58:48;102869.88;;;5.90;100.00
51687;BME280;37774;52.192;4.584;2023-02-02T13:01:31;103078.00;;;7.03;100.00
51687;BME280;37774;52.192;4.584;2023-02-02T13:04:17;103137.56;;;7.25;100.00
51687;BME280;37774;52.192;4.584;2023-02-02T13:09:41;102911.44;;;5.58;100.00
51687;BME280;37774;52.192;4.584;2023-02-02T13:12:13;103168.34;;;7.19;100.00
51687;BME280;37774;52.192;4.584;2023-02-02T13:14:47;102832.16;;;4.98;100.00
51687;BME280;37774;52.192;4.584;2023-02-02T13:17:18;103185.50;;;7.17;100.00
51687;BME280;37774;52.192;4.584;2023-02-02T13:19:50;103112.47;;;6.64;100.00